Data for 12/24/2008

Time Sea-Level Adjusted Pressure Absolute Pressure Temperature Relative Humidity Dew Point   
(mb) (inHg) (mb) (inHg) (C) (F) (%) (C) (F)
00:05 1008 29.77 837 24.72 -10.1 13.9 68 -15 5
00:10 1008 29.77 837 24.72 -10.1 13.9 68 -14.9 5.1
00:15 1008 29.77 837 24.72 -10.2 13.6 68 -15 5
00:20 1008 29.77 837 24.72 -10.4 13.3 69 -15.1 4.8
00:25 1008 29.77 837 24.72 -10.4 13.2 68 -15.2 4.6
00:30 1008 29.77 837 24.72 -10.3 13.5 66 -15.4 4.2
00:35 1008 29.77 837 24.72 -10.1 13.9 65 -15.4 4.3
00:40 1008 29.77 837 24.72 -10.3 13.5 72 -14.4 6.2
00:45 1008 29.77 837 24.72 -11.1 12 75 -14.7 5.5
00:50 1008 29.77 837 24.72 -11.4 11.4 76 -14.9 5.2
00:55 1008 29.77 837 24.72 -11.4 11.4 75 -15 5
01:00 1008 29.77 837 24.72 -11.2 11.9 71 -15.4 4.3
01:05 1008 29.77 837 24.72 -10.9 12.3 71 -15.3 4.5
01:10 1008 29.77 837 24.72 -11.2 11.8 75 -14.9 5.2
01:15 1008 29.77 837 24.72 -11.7 10.9 75 -15.4 4.4
01:20 1008 29.77 837 24.72 -11.5 11.3 73 -15.3 4.4
01:25 1008 29.77 837 24.72 -11.4 11.6 72 -15.4 4.3
01:30 1008 29.77 837 24.72 -11.3 11.7 73 -15.2 4.6
01:35 1008 29.77 837 24.72 -11.5 11.4 74 -15.2 4.7
01:40 1008 29.77 837 24.72 -11.3 11.6 72 -15.5 4.2
01:45 1008 29.77 837 24.72 -10.8 12.5 70 -15.3 4.5
01:50 1008 29.77 837 24.72 -10.8 12.6 70 -15.2 4.6
01:55 1008 29.77 837 24.72 -10.8 12.6 69 -15.4 4.3
02:00 1008 29.77 837 24.72 -10.5 13.2 69 -15.1 4.8
02:05 1008 29.77 837 24.72 -10.7 12.8 70 -15.1 4.8
02:10 1008 29.77 837 24.72 -10.6 12.8 70 -15.2 4.7
02:15 1008 29.77 837 24.72 -10.6 12.9 68 -15.4 4.4
02:20 1008 29.77 837 24.72 -10.7 12.7 71 -15.1 4.8
02:25 1008 29.77 837 24.72 -11 12.2 70 -15.4 4.2
02:30 1008 29.77 837 24.72 -11.4 11.6 72 -15.5 4.1
02:35 1008 29.77 837 24.72 -11.6 11.2 70 -16 3.1
02:40 1008 29.77 837 24.72 -11.9 10.7 74 -15.6 3.9
02:45 1008 29.77 837 24.72 -11.5 11.3 70 -15.9 3.4
02:50 1008 29.77 837 24.72 -11.5 11.3 69 -16.2 2.9
02:55 1008 29.77 837 24.72 -12.1 10.3 74 -15.9 3.4
03:00 1008 29.77 837 24.72 -11.8 10.7 70 -16.2 2.8
03:05 1008 29.77 837 24.72 -11.9 10.6 72 -15.9 3.4
03:10 1008 29.77 838 24.75 -12.6 9.3 78 -15.8 3.6
03:15 1008 29.77 838 24.75 -12.8 9 78 -15.9 3.4
03:20 1008 29.77 838 24.75 -12.6 9.3 75 -16.2 2.9
03:25 1008 29.77 838 24.75 -12.8 8.9 77 -16 3.1
03:30 1009 29.8 838 24.75 -12.4 9.7 75 -16 3.1
03:35 1009 29.8 838 24.75 -12.2 10.1 72 -16.3 2.7
03:40 1008 29.77 838 24.75 -12.7 9.1 76 -16.1 3.1
03:45 1008 29.77 838 24.75 -12.5 9.4 73 -16.5 2.3
03:50 1008 29.77 838 24.75 -13 8.6 73 -16.8 1.7
03:55 1008 29.77 838 24.75 -13.3 8.1 76 -16.7 2
04:00 1008 29.77 838 24.75 -13 8.6 74 -16.8 1.8
04:05 1009 29.8 838 24.75 -12.7 9.2 72 -16.7 2
04:10 1009 29.8 838 24.75 -13.2 8.2 83 -15.5 4
04:15 1009 29.8 838 24.75 -13.6 7.6 75 -17.1 1.3
04:20 1009 29.8 838 24.75 -13.3 8 75 -16.9 1.6
04:25 1009 29.8 838 24.75 -13.6 7.5 76 -16.9 1.6
04:30 1009 29.8 838 24.75 -13.6 7.6 77 -16.8 1.7
04:35 1009 29.8 838 24.75 -13.5 7.7 75 -17 1.4
04:40 1009 29.8 838 24.75 -12.7 9.1 75 -16.3 2.7
04:45 1009 29.8 838 24.75 -13.1 8.3 73 -17.1 1.2
04:50 1009 29.8 838 24.75 -14.5 6 79 -17.3 0.9
04:55 1009 29.8 838 24.75 -15 5 80 -17.8 0
05:00 1009 29.8 838 24.75 -15.1 4.8 83 -17.4 0.7
05:05 1009 29.8 838 24.75 -14.3 6.2 78 -17.3 0.8
05:10 1009 29.8 838 24.75 -14.1 6.6 78 -17.2 1.1
05:15 1009 29.8 838 24.75 -13.9 6.9 77 -17.1 1.2
05:20 1009 29.8 838 24.75 -13.9 7 78 -17 1.4
05:25 1009 29.8 838 24.75 -13.9 6.9 78 -16.9 1.6
05:30 1009 29.8 838 24.75 -14 6.8 80 -16.7 1.9
05:35 1009 29.8 838 24.75 -13.6 7.6 78 -16.7 2
05:40 1008 29.77 838 24.75 -13.5 7.6 77 -16.7 1.9
05:45 1008 29.77 837 24.72 -13.5 7.8 79 -16.4 2.4
05:50 1008 29.77 837 24.72 -13.7 7.4 78 -16.8 1.8
05:55 1008 29.77 837 24.72 -13.6 7.4 77 -16.9 1.6
06:00 1008 29.77 837 24.72 -13.6 7.6 75 -17.1 1.3
06:05 1008 29.77 837 24.72 -13.9 7.1 76 -17.3 0.9
06:10 1008 29.77 837 24.72 -14.1 6.7 76 -17.5 0.6
06:15 1008 29.77 837 24.72 -14 6.7 78 -17.1 1.1
06:20 1008 29.77 837 24.72 -13.6 7.5 76 -17 1.4
06:25 1008 29.77 837 24.72 -13.7 7.3 81 -16.4 2.5
06:30 1008 29.77 837 24.72 -13.1 8.4 74 -16.8 1.7
06:35 1008 29.77 837 24.72 -13.4 7.9 75 -17 1.4
06:40 1008 29.77 837 24.72 -13.9 7.1 74 -17.5 0.5
06:45 1008 29.77 837 24.72 -12.8 9 74 -16.6 2.2
06:50 1008 29.77 837 24.72 -12.1 10.2 72 -16.2 2.9
06:55 1008 29.77 837 24.72 -12.7 9.1 73 -16.6 2
07:00 1008 29.77 837 24.72 -13 8.6 74 -16.7 2
07:05 1008 29.77 837 24.72 -12.6 9.3 72 -16.6 2.1
07:10 1008 29.77 837 24.72 -12.7 9.1 74 -16.5 2.3
07:15 1008 29.77 837 24.72 -12.9 8.9 75 -16.4 2.5
07:20 1008 29.77 837 24.72 -13.2 8.3 76 -16.5 2.2
07:25 1008 29.77 837 24.72 -13.8 7.2 80 -16.5 2.2
07:30 1008 29.77 837 24.72 -13.6 7.5 77 -16.7 1.9
07:35 1008 29.77 837 24.72 -13.1 8.4 77 -16.3 2.6
07:40 1008 29.77 837 24.72 -12.5 9.5 73 -16.5 2.4
07:45 1008 29.77 837 24.72 -12.7 9.1 73 -16.6 2.1
07:50 1008 29.77 837 24.72 -13.1 8.5 74 -16.8 1.7
07:55 1008 29.77 837 24.72 -13.4 7.9 75 -16.9 1.5
08:00 1008 29.77 837 24.72 -13.8 7.1 76 -17.2 1
08:05 1008 29.77 837 24.72 -13.8 7.1 76 -17.3 0.9
08:10 1008 29.77 837 24.72 -13.9 6.9 76 -17.2 1
08:15 1008 29.77 837 24.72 -13.7 7.3 76 -17.2 1.1
08:20 1008 29.77 837 24.72 -13.7 7.3 75 -17.2 1.1
08:25 1008 29.77 837 24.72 -13.5 7.6 75 -17 1.3
08:30 1008 29.77 837 24.72 -13.3 8.1 75 -16.9 1.6
08:35 1008 29.77 837 24.72 -13.4 7.8 75 -17 1.3
08:40 1008 29.77 837 24.72 -13.7 7.3 76 -17 1.3
08:45 1008 29.77 837 24.72 -13.8 7.1 78 -16.9 1.6
08:50 1008 29.77 837 24.72 -13.3 8 76 -16.7 2
08:55 1008 29.77 837 24.72 -13.2 8.3 77 -16.4 2.5
09:00 1008 29.77 837 24.72 -13.5 7.6 79 -16.4 2.5
09:05 1008 29.77 837 24.72 -12.9 8.8 75 -16.5 2.4
09:10 1008 29.77 837 24.72 -12.4 9.8 73 -16.3 2.7
09:15 1008 29.77 837 24.72 -11.8 10.7 71 -16.1 3
09:20 1008 29.77 837 24.72 -11.7 10.9 71 -16 3.1
09:25 1008 29.77 837 24.72 -12.1 10.2 75 -15.6 3.9
09:30 1008 29.77 837 24.72 -12.1 10.2 75 -15.7 3.7
09:35 1008 29.77 837 24.72 -11.9 10.6 73 -15.7 3.7
09:40 1008 29.77 837 24.72 -11.5 11.3 72 -15.6 4
09:45 1008 29.77 837 24.72 -11.3 11.8 72 -15.4 4.3
09:50 1008 29.77 837 24.72 -11 12.2 72 -15.1 4.8
09:55 1008 29.77 837 24.72 -10.8 12.7 71 -15 4.9
10:00 1008 29.77 837 24.72 -10.5 13.1 70 -15 5
10:05 1008 29.77 837 24.72 -10.1 13.8 68 -14.9 5.2
10:10 1008 29.77 837 24.72 -9.9 14.1 68 -14.7 5.5
10:15 1008 29.77 837 24.72 -9.8 14.4 68 -14.6 5.8
10:20 1008 29.77 837 24.72 -9.6 14.8 67 -14.5 5.8
10:25 1008 29.77 837 24.72 -9.5 14.9 68 -14.4 6.1
10:30 1008 29.77 837 24.72 -9.1 15.6 64 -14.7 5.6
10:35 1008 29.77 837 24.72 -9 15.9 66 -14.3 6.3
10:40 1008 29.77 837 24.72 -8.7 16.3 65 -14.1 6.6
10:45 1008 29.77 837 24.72 -8.5 16.7 62 -14.5 6
10:50 1008 29.77 837 24.72 -8.1 17.4 61 -14.4 6.1
10:55 1008 29.77 837 24.72 -7.6 18.3 60 -14.1 6.6
11:00 1008 29.77 837 24.72 -7.3 18.9 60 -13.8 7.1
11:05 1008 29.77 837 24.72 -7.3 18.8 59 -14 6.8
11:10 1007 29.74 837 24.72 -7.3 18.8 59 -14 6.8
11:15 1007 29.74 837 24.72 -7 19.4 56 -14.3 6.3
11:20 1007 29.74 837 24.72 -6.2 20.8 55 -13.9 7
11:25 1007 29.74 837 24.72 -6.1 20.9 57 -13.3 8
11:30 1007 29.74 836 24.69 -6.4 20.4 58 -13.5 7.8
11:35 1007 29.74 837 24.72 -6.4 20.5 57 -13.6 7.5
11:40 1007 29.74 836 24.69 -5.9 21.5 56 -13.3 8.1
11:45 1007 29.74 836 24.69 -5.5 22 58 -12.6 9.2
11:50 1007 29.74 836 24.69 -5.9 21.4 59 -12.7 9.2
11:55 1007 29.74 836 24.69 -5.8 21.5 55 -13.4 7.8
12:00 1007 29.74 836 24.69 -5.5 22.1 55 -13.1 8.5
12:05 1007 29.74 836 24.69 -5.4 22.3 55 -13.2 8.3
12:10 1007 29.74 836 24.69 -5.9 21.4 57 -13.1 8.3
12:15 1007 29.74 836 24.69 -5.9 21.3 58 -12.9 8.7
12:20 1007 29.74 836 24.69 -6.1 21.1 60 -12.7 9.2
12:25 1007 29.74 836 24.69 -5.9 21.4 56 -13.3 8.1
12:30 1007 29.74 836 24.69 -6 21.2 57 -13.2 8.2
12:35 1007 29.74 836 24.69 -6 21.2 56 -13.4 7.9
12:40 1007 29.74 836 24.69 -5.8 21.6 55 -13.4 7.8
12:45 1007 29.74 836 24.69 -5.4 22.4 51 -13.9 7
12:50 1007 29.74 836 24.69 -5 22.9 51 -13.7 7.3
12:55 1007 29.74 836 24.69 -4.5 24 48 -13.8 7.1
13:00 1007 29.74 836 24.69 -4.2 24.5 47 -14 6.8
13:05 1007 29.74 836 24.69 -3.9 25 46 -13.8 7.1
13:10 1007 29.74 836 24.69 -3.8 25.1 48 -13.4 7.8
13:15 1007 29.74 836 24.69 -3.8 25.1 47 -13.6 7.5
13:20 1007 29.74 836 24.69 -3.8 25.1 48 -13.3 8
13:25 1007 29.74 836 24.69 -3.8 25.1 49 -13 8.7
13:30 1006 29.71 836 24.69 -4 24.9 48 -13.4 7.9
13:35 1006 29.71 836 24.69 -4 24.9 48 -13.3 8
13:40 1006 29.71 835 24.66 -3.8 25.2 45 -14 6.7
13:45 1006 29.71 835 24.66 -3.8 25.2 47 -13.4 7.8
13:50 1006 29.71 835 24.66 -3.7 25.3 45 -14 6.8
13:55 1006 29.71 835 24.66 -3.6 25.5 45 -13.8 7.1
14:00 1006 29.71 835 24.66 -3.5 25.7 48 -13.1 8.4
14:05 1006 29.71 835 24.66 -3.3 26 44 -13.9 7
14:10 1006 29.71 835 24.66 -3.2 26.2 43 -14 6.8
14:15 1006 29.71 835 24.66 -3.3 26 44 -13.9 7
14:20 1006 29.71 835 24.66 -3.4 25.8 45 -13.7 7.3
14:25 1006 29.71 835 24.66 -3.3 26.1 44 -14 6.9
14:30 1006 29.71 835 24.66 -3.2 26.2 42 -14.3 6.2
14:35 1006 29.71 835 24.66 -3.1 26.3 46 -13.2 8.3
14:40 1006 29.71 835 24.66 -3.2 26.2 47 -13.1 8.4
14:45 1006 29.71 835 24.66 -3.1 26.3 47 -12.8 8.9
14:50 1006 29.71 835 24.66 -3.1 26.5 47 -13 8.7
14:55 1006 29.71 835 24.66 -3.2 26.3 47 -13 8.6
15:00 1006 29.71 835 24.66 -3.3 26 47 -13.1 8.3
15:05 1006 29.71 835 24.66 -3.3 26 45 -13.7 7.3
15:10 1006 29.71 835 24.66 -3.2 26.2 44 -14 6.8
15:15 1006 29.71 835 24.66 -3.1 26.4 44 -13.7 7.3
15:20 1006 29.71 835 24.66 -3 26.5 44 -13.8 7.2
15:25 1006 29.71 835 24.66 -2.7 27.2 43 -13.6 7.6
15:30 1006 29.71 835 24.66 -2.4 27.7 42 -13.7 7.3
15:35 1006 29.71 835 24.66 -2.1 28.3 41 -13.8 7.2
15:40 1006 29.71 835 24.66 -2 28.4 41 -13.6 7.4
15:45 1006 29.71 835 24.66 -2.2 28.1 42 -13.6 7.6
15:50 1006 29.71 835 24.66 -2.7 27.2 43 -13.6 7.5
15:55 1006 29.71 835 24.66 -2.9 26.7 45 -13.3 8.1
16:00 1006 29.71 835 24.66 -3.1 26.4 46 -13.3 8.1
16:05 1006 29.71 835 24.66 -3.3 26.1 49 -12.7 9.2
16:10 1006 29.71 835 24.66 -3.2 26.2 49 -12.6 9.3
16:15 1006 29.71 835 24.66 -3.2 26.3 48 -12.7 9.2
16:20 1006 29.71 835 24.66 -3.4 26 49 -12.6 9.4
16:25 1006 29.71 835 24.66 -3.7 25.3 51 -12.5 9.4
16:30 1006 29.71 835 24.66 -4.2 24.5 50 -13.2 8.3
16:35 1006 29.71 835 24.66 -4.1 24.6 49 -13.4 8
16:40 1006 29.71 835 24.66 -4.2 24.5 50 -13.2 8.2
16:45 1006 29.71 835 24.66 -4.3 24.3 51 -13 8.6
16:50 1006 29.71 835 24.66 -4.6 23.7 47 -14.2 6.4
16:55 1006 29.71 835 24.66 -4.4 24 50 -13.3 8.1
17:00 1006 29.71 835 24.66 -4.7 23.6 46 -14.7 5.5
17:05 1006 29.71 835 24.66 -4.5 24 44 -15 5
17:10 1006 29.71 835 24.66 -4 24.9 42 -15 5.1
17:15 1006 29.71 835 24.66 -3.7 25.4 42 -14.8 5.3
17:20 1006 29.71 835 24.66 -3.7 25.4 42 -14.8 5.4
17:25 1006 29.71 835 24.66 -4 24.7 43 -14.8 5.3
17:30 1006 29.71 835 24.66 -4.2 24.5 43 -15.1 4.8
17:35 1006 29.71 835 24.66 -4.1 24.6 42 -15.3 4.4
17:40 1006 29.71 835 24.66 -3.8 25.2 41 -15.2 4.6
17:45 1006 29.71 835 24.66 -3.6 25.5 40 -15.3 4.4
17:50 1006 29.71 835 24.66 -3.4 25.8 40 -15.2 4.6
17:55 1006 29.71 835 24.66 -3.5 25.7 41 -15.1 4.8
18:00 1006 29.71 835 24.66 -3.6 25.5 41 -14.9 5.1
18:05 1006 29.71 835 24.66 -4.1 24.5 44 -14.6 5.7
18:10 1006 29.71 835 24.66 -4.2 24.4 42 -15.2 4.7
18:15 1006 29.71 835 24.66 -3.7 25.3 41 -15.1 4.8
18:20 1005 29.68 835 24.66 -3.3 26 40 -15.1 4.8
18:25 1005 29.68 835 24.66 -3.4 25.9 42 -14.4 6
18:30 1005 29.68 835 24.66 -4.1 24.6 47 -13.8 7.1
18:35 1005 29.68 835 24.66 -5.3 22.5 52 -13.6 7.5
18:40 1005 29.68 834 24.63 -5.2 22.7 47 -14.9 5.1
18:45 1005 29.68 834 24.63 -4.7 23.6 46 -14.7 5.6
18:50 1005 29.68 834 24.63 -4.6 23.7 45 -14.8 5.4
18:55 1005 29.68 834 24.63 -4.3 24.3 45 -14.4 6.1
19:00 1005 29.68 834 24.63 -4.3 24.3 47 -14 6.8
19:05 1005 29.68 834 24.63 -5.2 22.7 56 -12.7 9.2
19:10 1005 29.68 834 24.63 -6.3 20.7 60 -12.9 8.8
19:15 1004 29.65 834 24.63 -6.6 20.2 60 -13.1 8.4
19:20 1004 29.65 834 24.63 -6.5 20.2 60 -13.1 8.5
19:25 1004 29.65 833 24.6 -6.4 20.6 58 -13.4 7.9
19:30 1004 29.65 833 24.6 -6.2 20.9 59 -13 8.6
19:35 1004 29.65 833 24.6 -6.5 20.4 61 -12.8 8.9
19:40 1004 29.65 833 24.6 -6.6 20.2 59 -13.3 8.1
19:45 1004 29.65 833 24.6 -6.3 20.6 59 -13.1 8.4
19:50 1004 29.65 833 24.6 -6.3 20.7 59 -13.1 8.5
19:55 1004 29.65 833 24.6 -5.5 22 50 -14.4 6.1
20:00 1004 29.65 833 24.6 -4.7 23.6 50 -13.6 7.5
20:05 1004 29.65 833 24.6 -4.8 23.3 52 -13.3 8
20:10 1004 29.65 833 24.6 -5.2 22.7 52 -13.6 7.4
20:15 1004 29.65 833 24.6 -5.3 22.5 54 -13.2 8.2
20:20 1004 29.65 833 24.6 -5.6 21.9 52 -14 6.8
20:25 1004 29.65 833 24.6 -5.2 22.6 53 -13.3 8
20:30 1004 29.65 833 24.6 -5.8 21.6 55 -13.4 7.8
20:35 1004 29.65 833 24.6 -5.8 21.5 56 -13.3 8
20:40 1004 29.65 833 24.6 -5.8 21.6 55 -13.5 7.7
20:45 1004 29.65 833 24.6 -5.9 21.4 57 -13.2 8.3
20:50 1004 29.65 833 24.6 -5.7 21.7 55 -13.4 7.8
20:55 1004 29.65 833 24.6 -5.7 21.7 57 -12.9 8.7
21:00 1004 29.65 833 24.6 -6.3 20.7 60 -12.8 9
21:05 1003 29.62 832 24.57 -6.3 20.6 59 -13.1 8.4
21:10 1004 29.65 833 24.6 -6.4 20.5 59 -13.2 8.2
21:15 1003 29.62 833 24.6 -6.3 20.7 61 -12.7 9.1
21:20 1003 29.62 832 24.57 -6.7 20 63 -12.6 9.2
21:25 1003 29.62 832 24.57 -6.8 19.7 63 -12.8 9
21:30 1003 29.62 833 24.6 -6.9 19.7 65 -12.4 9.7
21:35 1003 29.62 833 24.6 -6.7 20 63 -12.7 9.1
21:40 1003 29.62 833 24.6 -6.2 20.9 61 -12.5 9.6
21:45 1003 29.62 833 24.6 -6.1 20.9 61 -12.5 9.5
21:50 1003 29.62 833 24.6 -6.2 20.8 61 -12.5 9.5
21:55 1003 29.62 832 24.57 -6.1 21.1 61 -12.4 9.7
22:00 1003 29.62 832 24.57 -6 21.1 61 -12.4 9.6
22:05 1003 29.62 832 24.57 -6.1 21.1 60 -12.5 9.4
22:10 1003 29.62 832 24.57 -5.9 21.4 59 -12.6 9.3
22:15 1003 29.62 832 24.57 -5.9 21.4 60 -12.5 9.5
22:20 1003 29.62 832 24.57 -5.8 21.5 59 -12.6 9.3
22:25 1003 29.62 832 24.57 -5.7 21.7 59 -12.5 9.5
22:30 1003 29.62 832 24.57 -5.7 21.7 59 -12.5 9.5
22:35 1003 29.62 832 24.57 -5.6 21.9 59 -12.4 9.6
22:40 1003 29.62 832 24.57 -5.5 22.1 59 -12.4 9.7
22:45 1003 29.62 832 24.57 -5.3 22.5 58 -12.2 10
22:50 1002 29.59 832 24.57 -5.2 22.7 57 -12.3 9.9
22:55 1002 29.59 832 24.57 -5.2 22.7 59 -12 10.5
23:00 1002 29.59 832 24.57 -5.3 22.5 59 -12.2 10.1
23:05 1002 29.59 831 24.54 -5.1 22.7 60 -11.8 10.7
23:10 1002 29.59 831 24.54 -5.1 22.8 58 -12.1 10.2
23:15 1002 29.59 831 24.54 -4.9 23.2 59 -11.8 10.8
23:20 1002 29.59 831 24.54 -4.8 23.3 58 -11.8 10.8
23:25 1002 29.59 831 24.54 -4.8 23.4 60 -11.5 11.3
23:30 1002 29.59 831 24.54 -4.9 23.2 60 -11.6 11.2
23:35 1002 29.59 831 24.54 -4.9 23.3 60 -11.4 11.4
23:40 1002 29.59 831 24.54 -4.8 23.4 59 -11.7 10.9
23:45 1002 29.59 831 24.54 -4.4 24 56 -11.9 10.7
23:50 1002 29.59 831 24.54 -4.3 24.3 56 -11.8 10.7
23:55 1002 29.59 831 24.54 -4.2 24.4 56 -11.7 10.9
24:00 1002 29.59 831 24.54 -4.2 24.4 56 -11.7 10.9